Dodge City, Kansas
Current Conditions -  °F | °C
As of 3:52 AM on Sunday 26 Oct 2014 (Local Time) from KDDC Reporting Station
Clear Clear  
Wind Chill: 60°   Ceiling: Unl
Heat Index: 60°   Visibility: 10mi
Dew Point: 49°   Wind: 9mph
Humidity: 67%   Direction: 190°S
Pressure: 29.86"   Gusts: NA
Location:  37.75°N, 100.01°W
Report Text: KDDC 260852Z AUTO 19008KT 10SM CLR 16/09 A2986 RMK AO2 SLP080 T01560094 58018
Loading
Personal Weather Stations






























Interactive Weather Map
Tropical Storm Tracking
New forecast layout! Learn more

10-Day Weather Forecast

Advertisements
Track Severe Weather on mobile